createdAt,value
2023-08-11T00:01:05.821Z,18.10
2023-08-11T00:03:34.039Z,18.00
2023-08-11T00:06:01.736Z,18.10
2023-08-11T00:08:28.811Z,18.00
2023-08-11T00:10:56.000Z,18.00
2023-08-11T00:13:23.027Z,18.00
2023-08-11T00:15:50.212Z,18.00
2023-08-11T00:18:17.417Z,17.90
2023-08-11T00:20:44.595Z,18.00
2023-08-11T00:23:11.664Z,18.00
2023-08-11T00:25:38.784Z,18.00
2023-08-11T00:28:06.301Z,17.90
2023-08-11T00:30:33.471Z,17.90
2023-08-11T00:33:00.547Z,18.00
2023-08-11T00:35:27.747Z,18.00
2023-08-11T00:37:54.914Z,17.90
2023-08-11T00:40:22.075Z,17.90
2023-08-11T00:42:50.863Z,17.80
2023-08-11T00:45:18.307Z,17.80
2023-08-11T00:47:46.786Z,17.80
2023-08-11T00:50:17.269Z,17.80
2023-08-11T00:52:46.980Z,17.80
2023-08-11T00:55:15.283Z,17.80
2023-08-11T00:57:43.727Z,17.80
2023-08-11T01:00:13.724Z,17.80
2023-08-11T01:02:43.681Z,17.80
2023-08-11T01:05:17.257Z,17.80
2023-08-11T01:07:56.275Z,17.80
2023-08-11T01:10:46.612Z,17.70
2023-08-11T01:13:27.156Z,17.70
2023-08-11T01:16:01.402Z,17.70
2023-08-11T01:18:30.021Z,17.60
2023-08-11T01:21:07.188Z,17.60
2023-08-11T01:23:35.461Z,17.60
2023-08-11T01:26:03.559Z,17.60
2023-08-11T01:28:30.689Z,17.50
2023-08-11T01:30:57.713Z,17.50
2023-08-11T01:33:24.876Z,17.50
2023-08-11T01:35:51.978Z,17.50
2023-08-11T01:38:19.132Z,17.50
2023-08-11T01:40:47.123Z,17.40
2023-08-11T01:43:16.628Z,17.40
2023-08-11T01:45:49.554Z,17.50
2023-08-11T01:48:19.440Z,17.40
2023-08-11T01:50:47.844Z,17.40
2023-08-11T01:53:15.504Z,17.30
2023-08-11T01:55:45.636Z,17.40
2023-08-11T01:58:13.528Z,17.40
2023-08-11T02:00:40.580Z,17.30
2023-08-11T02:03:08.864Z,17.40
2023-08-11T02:05:36.061Z,17.30
2023-08-11T02:08:03.986Z,17.30
2023-08-11T02:10:31.346Z,17.40
2023-08-11T02:12:58.547Z,17.40
2023-08-11T02:15:25.831Z,17.40
2023-08-11T02:17:53.020Z,17.40
2023-08-11T02:20:23.968Z,17.40
2023-08-11T02:22:53.440Z,17.30
2023-08-11T02:25:20.888Z,17.30
2023-08-11T02:27:48.332Z,17.30
2023-08-11T02:30:15.884Z,17.30
2023-08-11T02:32:46.802Z,17.20
2023-08-11T02:35:18.655Z,17.20
2023-08-11T02:37:46.427Z,17.20
2023-08-11T02:40:13.954Z,17.20
2023-08-11T02:42:49.531Z,17.10
2023-08-11T02:45:16.820Z,17.10
2023-08-11T02:47:44.030Z,17.10
2023-08-11T02:50:12.389Z,17.10
2023-08-11T02:52:40.167Z,17.00
2023-08-11T02:55:08.873Z,17.10
2023-08-11T02:57:36.555Z,17.10
2023-08-11T03:00:11.141Z,17.10
2023-08-11T03:02:38.351Z,17.00
2023-08-11T03:05:08.420Z,17.10
2023-08-11T03:07:37.954Z,17.10
2023-08-11T03:10:05.948Z,17.10
2023-08-11T03:12:33.917Z,17.10
2023-08-11T03:15:01.014Z,17.10
2023-08-11T03:17:28.572Z,17.10
2023-08-11T03:19:55.800Z,17.10
2023-08-11T03:22:22.953Z,17.10
2023-08-11T03:24:50.424Z,17.00
2023-08-11T03:27:19.781Z,17.10
2023-08-11T03:29:46.931Z,17.00
2023-08-11T03:32:14.195Z,17.00
2023-08-11T03:34:42.457Z,16.90
2023-08-11T03:37:11.076Z,17.00
2023-08-11T03:39:38.221Z,16.90
2023-08-11T03:42:06.118Z,16.90
2023-08-11T03:44:33.838Z,16.90
2023-08-11T03:47:02.631Z,17.00
2023-08-11T03:49:30.306Z,16.90
2023-08-11T03:51:58.373Z,17.00
2023-08-11T03:54:35.622Z,17.00
2023-08-11T03:57:11.750Z,17.10
2023-08-11T03:59:38.945Z,17.10
2023-08-11T04:02:06.767Z,17.10
2023-08-11T04:04:34.156Z,17.20
2023-08-11T04:07:01.516Z,17.20
2023-08-11T04:09:30.332Z,17.20
2023-08-11T04:11:57.875Z,17.20
2023-08-11T04:14:25.772Z,17.20
2023-08-11T04:16:52.849Z,17.20
2023-08-11T04:19:19.951Z,17.20
2023-08-11T04:21:47.232Z,17.20
2023-08-11T04:24:16.503Z,17.20
2023-08-11T04:26:43.652Z,17.20
2023-08-11T04:29:11.038Z,17.20
2023-08-11T04:31:38.300Z,17.30
2023-08-11T04:34:06.550Z,17.30
2023-08-11T04:36:34.494Z,17.30
2023-08-11T04:39:01.798Z,17.30
2023-08-11T04:41:29.162Z,17.40
2023-08-11T04:43:56.295Z,17.30
2023-08-11T04:46:23.453Z,17.30
2023-08-11T04:48:51.037Z,17.30
2023-08-11T04:51:18.375Z,17.40
2023-08-11T04:53:45.473Z,17.40
2023-08-11T04:56:12.692Z,17.40
2023-08-11T04:58:40.593Z,17.40
2023-08-11T05:01:08.666Z,17.40
2023-08-11T05:03:35.851Z,17.40
2023-08-11T05:06:05.216Z,17.40
2023-08-11T05:08:34.092Z,17.40
2023-08-11T05:11:01.348Z,17.40
2023-08-11T05:13:28.427Z,17.40
2023-08-11T05:15:55.578Z,17.50
2023-08-11T05:18:23.443Z,17.50
2023-08-11T05:20:50.633Z,17.50
2023-08-11T05:23:17.725Z,17.50
2023-08-11T05:25:44.973Z,17.60
2023-08-11T05:28:12.299Z,17.60
2023-08-11T05:30:39.950Z,17.60
2023-08-11T05:33:07.100Z,17.60
2023-08-11T05:35:34.289Z,17.60
2023-08-11T05:38:02.726Z,17.60
2023-08-11T05:40:30.534Z,17.70
2023-08-11T05:42:57.692Z,17.60
2023-08-11T05:45:24.876Z,17.60
2023-08-11T05:47:52.097Z,17.60
2023-08-11T05:50:19.722Z,17.60
2023-08-11T05:52:46.920Z,17.60
2023-08-11T05:55:14.136Z,17.60
2023-08-11T05:57:41.329Z,17.60
2023-08-11T06:00:10.189Z,17.60
2023-08-11T06:02:43.735Z,17.60
2023-08-11T06:05:10.920Z,17.50
2023-08-11T06:07:37.978Z,17.50
2023-08-11T06:10:05.482Z,17.50
2023-08-11T06:12:32.702Z,17.50
2023-08-11T06:15:00.118Z,17.50
2023-08-11T06:17:27.263Z,17.50
2023-08-11T06:19:54.452Z,17.50
2023-08-11T06:22:21.566Z,17.50
2023-08-11T06:24:48.713Z,17.60
2023-08-11T06:27:16.193Z,17.60
2023-08-11T06:29:43.268Z,17.60
2023-08-11T06:32:10.348Z,17.60
2023-08-11T06:34:37.457Z,17.60
2023-08-11T06:37:04.788Z,17.70
2023-08-11T06:39:31.948Z,17.70
2023-08-11T06:41:58.999Z,17.80
2023-08-11T06:44:46.046Z,17.80
2023-08-11T06:47:13.111Z,17.80
2023-08-11T06:49:40.130Z,17.90
2023-08-11T06:52:07.369Z,17.90
2023-08-11T06:54:35.291Z,18.00
2023-08-11T06:57:05.877Z,18.00
2023-08-11T06:59:33.112Z,18.00
2023-08-11T07:02:00.260Z,18.00
2023-08-11T07:04:27.449Z,18.00
2023-08-11T07:06:56.004Z,18.10
2023-08-11T07:09:23.118Z,18.10
2023-08-11T07:11:50.238Z,18.10
2023-08-11T07:14:17.329Z,18.10
2023-08-11T07:16:44.439Z,18.10
2023-08-11T07:19:11.795Z,18.10
2023-08-11T07:21:38.865Z,18.10
2023-08-11T07:24:06.289Z,18.10
2023-08-11T07:26:33.593Z,18.10
2023-08-11T07:29:00.724Z,18.10
2023-08-11T07:31:27.916Z,18.00
2023-08-11T07:33:55.134Z,18.00
2023-08-11T07:36:22.520Z,18.00
2023-08-11T07:38:49.665Z,18.00
2023-08-11T07:41:17.112Z,18.00
2023-08-11T07:43:44.312Z,18.00
2023-08-11T07:46:11.490Z,18.00
2023-08-11T07:48:38.841Z,17.90
2023-08-11T07:51:05.990Z,17.90
2023-08-11T07:53:33.168Z,17.90
2023-08-11T07:56:00.515Z,17.90
2023-08-11T07:58:27.663Z,17.90
2023-08-11T08:00:54.872Z,17.90
2023-08-11T08:03:22.073Z,17.90
2023-08-11T08:05:49.292Z,18.00
2023-08-11T08:08:16.933Z,18.00
2023-08-11T08:10:44.097Z,18.10
2023-08-11T08:13:11.190Z,18.20
2023-08-11T08:15:39.102Z,18.20
2023-08-11T08:18:06.547Z,18.30
2023-08-11T08:20:33.682Z,18.40
2023-08-11T08:23:00.778Z,18.40
2023-08-11T08:25:28.021Z,18.40
2023-08-11T08:28:05.575Z,18.40
2023-08-11T08:30:34.754Z,18.40
2023-08-11T08:33:02.086Z,18.40
2023-08-11T08:35:29.223Z,18.30
2023-08-11T08:37:56.318Z,18.30
2023-08-11T08:40:23.831Z,18.30
2023-08-11T08:42:51.486Z,18.40
2023-08-11T08:45:20.320Z,18.40
2023-08-11T08:47:49.880Z,18.40
2023-08-11T08:50:18.681Z,18.50
2023-08-11T08:52:46.673Z,18.50
2023-08-11T08:55:13.866Z,18.50
2023-08-11T08:57:41.656Z,18.60
2023-08-11T09:00:09.508Z,18.70
2023-08-11T09:02:37.576Z,18.70
2023-08-11T09:05:05.122Z,18.80
2023-08-11T09:07:32.298Z,18.90
2023-08-11T09:09:59.574Z,18.90
2023-08-11T09:12:28.871Z,18.90
2023-08-11T09:14:56.203Z,19.00
2023-08-11T09:17:23.413Z,19.00
2023-08-11T09:19:54.414Z,19.00
2023-08-11T09:22:28.599Z,19.10
2023-08-11T09:24:57.008Z,19.20
2023-08-11T09:27:24.160Z,19.30
2023-08-11T09:29:51.663Z,19.30
2023-08-11T09:32:24.839Z,19.30
2023-08-11T09:34:54.744Z,19.40
2023-08-11T09:37:21.960Z,19.40
2023-08-11T09:39:50.618Z,19.40
2023-08-11T09:42:20.173Z,19.50
2023-08-11T09:44:52.197Z,19.50
2023-08-11T09:47:23.152Z,19.70
2023-08-11T09:49:50.530Z,19.80
2023-08-11T09:52:18.575Z,19.90
2023-08-11T09:54:47.505Z,20.00
2023-08-11T09:57:15.037Z,20.10
2023-08-11T09:59:47.887Z,20.20
2023-08-11T10:02:19.033Z,20.30
2023-08-11T10:04:58.044Z,20.30
2023-08-11T10:07:35.537Z,20.40
2023-08-11T10:10:13.157Z,20.50
2023-08-11T10:12:46.039Z,20.50
2023-08-11T10:15:17.312Z,20.60
2023-08-11T10:17:45.228Z,20.60
2023-08-11T10:20:13.200Z,20.60
2023-08-11T10:22:40.412Z,20.70
2023-08-11T10:25:09.028Z,20.70
2023-08-11T10:27:37.959Z,20.80
2023-08-11T10:30:07.115Z,20.80
2023-08-11T10:32:34.550Z,20.80
2023-08-11T10:35:02.237Z,20.80
2023-08-11T10:37:37.197Z,20.80
2023-08-11T10:40:04.423Z,20.90
2023-08-11T10:42:31.703Z,21.00
2023-08-11T10:45:28.018Z,21.00
2023-08-11T10:47:56.835Z,21.10
2023-08-11T10:50:24.100Z,21.10
2023-08-11T10:53:07.092Z,21.10
2023-08-11T10:55:37.478Z,21.20
2023-08-11T10:58:15.630Z,21.30
2023-08-11T11:00:43.183Z,21.30
2023-08-11T11:03:10.835Z,21.40
2023-08-11T11:05:38.190Z,21.50
2023-08-11T11:08:05.256Z,21.50
2023-08-11T11:10:43.878Z,21.60
2023-08-11T11:13:16.260Z,21.60
2023-08-11T11:15:43.447Z,21.60
2023-08-11T11:18:10.867Z,21.70
2023-08-11T11:20:39.181Z,21.80
2023-08-11T11:23:06.908Z,21.80
2023-08-11T11:25:34.112Z,21.90
2023-08-11T11:28:01.309Z,21.90
2023-08-11T11:30:28.491Z,21.80
2023-08-11T11:32:55.709Z,21.80
2023-08-11T11:35:24.964Z,21.80
2023-08-11T11:37:53.079Z,21.80
2023-08-11T11:40:20.312Z,21.80
2023-08-11T11:42:48.652Z,21.80
2023-08-11T11:45:16.244Z,21.80
2023-08-11T11:47:43.692Z,21.80
2023-08-11T11:50:10.972Z,21.80
2023-08-11T11:52:38.372Z,21.90
2023-08-11T11:55:09.059Z,21.90
2023-08-11T11:57:36.219Z,21.90
2023-08-11T12:00:04.864Z,21.90
2023-08-11T12:02:41.515Z,22.00
2023-08-11T12:05:09.632Z,22.00
2023-08-11T12:07:37.930Z,22.10
2023-08-11T12:10:08.887Z,22.10
2023-08-11T12:12:36.430Z,22.20
2023-08-11T12:15:04.571Z,22.30
2023-08-11T12:17:33.451Z,22.30
2023-08-11T12:20:09.586Z,22.40
2023-08-11T12:22:37.110Z,22.50
2023-08-11T12:25:04.705Z,22.50
2023-08-11T12:27:32.083Z,22.60
2023-08-11T12:29:59.290Z,22.70
2023-08-11T12:32:26.445Z,22.70
2023-08-11T12:34:53.628Z,22.80
2023-08-11T12:37:20.765Z,22.80
2023-08-11T12:39:47.915Z,22.90
2023-08-11T12:42:15.015Z,22.90
2023-08-11T12:44:42.538Z,22.90
2023-08-11T12:47:09.778Z,22.90
2023-08-11T12:49:36.948Z,22.80
2023-08-11T12:52:04.087Z,22.80
2023-08-11T12:54:31.135Z,22.80
2023-08-11T12:56:58.215Z,22.90
2023-08-11T12:59:26.076Z,22.90
2023-08-11T13:01:53.273Z,22.90
2023-08-11T13:04:20.475Z,23.10
2023-08-11T13:06:47.644Z,23.20
2023-08-11T13:09:15.936Z,23.20
2023-08-11T13:11:44.239Z,23.40
2023-08-11T13:14:11.659Z,23.40
2023-08-11T13:16:39.184Z,23.40
2023-08-11T13:19:06.713Z,23.40
2023-08-11T13:21:34.260Z,23.40
2023-08-11T13:24:02.048Z,23.50
2023-08-11T13:26:29.631Z,23.50
2023-08-11T13:28:58.639Z,23.60
2023-08-11T13:31:26.334Z,23.60
2023-08-11T13:33:53.444Z,23.50
2023-08-11T13:36:21.707Z,23.40
2023-08-11T13:38:48.974Z,23.30
2023-08-11T13:41:16.036Z,23.30
2023-08-11T13:43:43.116Z,23.30
2023-08-11T13:46:10.742Z,23.20
2023-08-11T13:48:38.079Z,23.30
2023-08-11T13:51:05.459Z,23.40
2023-08-11T13:53:32.554Z,23.50
2023-08-11T13:55:59.728Z,23.60
2023-08-11T13:58:26.872Z,23.60
2023-08-11T14:00:54.109Z,23.70
2023-08-11T14:03:21.244Z,23.80
2023-08-11T14:05:48.989Z,23.90
2023-08-11T14:08:16.263Z,23.90
2023-08-11T14:10:43.328Z,23.90
2023-08-11T14:13:11.812Z,24.00
2023-08-11T14:15:39.590Z,24.00
2023-08-11T14:18:07.505Z,24.00
2023-08-11T14:20:34.867Z,24.00
2023-08-11T14:23:02.093Z,24.00
2023-08-11T14:25:29.267Z,23.90
2023-08-11T14:27:56.529Z,23.80
2023-08-11T14:30:23.794Z,23.90
2023-08-11T14:32:51.036Z,23.90
2023-08-11T14:35:18.329Z,23.90
2023-08-11T14:37:45.529Z,24.10
2023-08-11T14:40:12.865Z,24.10
2023-08-11T14:42:40.001Z,24.20
2023-08-11T14:45:07.810Z,24.20
2023-08-11T14:47:34.952Z,24.30
2023-08-11T14:50:02.155Z,24.30
2023-08-11T14:52:29.253Z,24.30
2023-08-11T14:54:56.479Z,24.30
2023-08-11T14:57:24.657Z,24.20
2023-08-11T14:59:51.760Z,24.20
2023-08-11T15:02:19.032Z,24.20
2023-08-11T15:04:46.244Z,24.20
2023-08-11T15:07:13.347Z,24.20
2023-08-11T15:09:40.885Z,24.20
2023-08-11T15:12:08.894Z,24.20
2023-08-11T15:14:36.337Z,24.30
2023-08-11T15:17:03.753Z,24.30
2023-08-11T15:19:34.092Z,24.30
2023-08-11T15:22:01.266Z,24.30
2023-08-11T15:24:28.342Z,24.30
2023-08-11T15:26:55.444Z,24.30
2023-08-11T15:29:22.535Z,24.30
2023-08-11T15:31:51.062Z,24.30
2023-08-11T15:34:19.972Z,24.30
2023-08-11T15:36:47.058Z,24.10
2023-08-11T15:39:14.469Z,23.90
2023-08-11T15:41:41.621Z,23.90
2023-08-11T15:44:08.804Z,23.90
2023-08-11T15:46:36.017Z,23.90
2023-08-11T15:49:03.257Z,23.90
2023-08-11T15:51:30.428Z,24.00
2023-08-11T15:53:57.618Z,24.10
2023-08-11T15:56:24.677Z,24.10
2023-08-11T15:58:51.849Z,24.10
2023-08-11T16:01:18.904Z,24.20
2023-08-11T16:03:46.153Z,24.20
2023-08-11T16:06:13.276Z,24.20
2023-08-11T16:08:40.440Z,24.30
2023-08-11T16:11:07.936Z,24.30
2023-08-11T16:13:35.041Z,24.30
2023-08-11T16:16:02.233Z,24.30
2023-08-11T16:18:32.548Z,24.40
2023-08-11T16:21:03.905Z,24.40
2023-08-11T16:23:31.303Z,24.50
2023-08-11T16:25:58.587Z,24.50
2023-08-11T16:28:25.679Z,24.40
2023-08-11T16:30:53.861Z,24.30
2023-08-11T16:33:21.477Z,24.20
2023-08-11T16:35:49.186Z,24.10
2023-08-11T16:38:16.462Z,24.10
2023-08-11T16:40:43.562Z,24.20
2023-08-11T16:43:10.754Z,24.30
2023-08-11T16:45:37.847Z,24.40
2023-08-11T16:48:06.693Z,24.50
2023-08-11T16:50:33.864Z,24.60
2023-08-11T16:53:01.030Z,24.60
2023-08-11T16:55:28.156Z,24.60
2023-08-11T16:57:55.322Z,24.60
2023-08-11T17:00:22.692Z,24.60
2023-08-11T17:02:49.864Z,24.60
2023-08-11T17:05:17.106Z,24.50
2023-08-11T17:07:44.192Z,24.30
2023-08-11T17:10:11.383Z,24.20
2023-08-11T17:12:38.478Z,24.10
2023-08-11T17:15:07.012Z,24.00
2023-08-11T17:17:34.251Z,23.90
2023-08-11T17:20:01.371Z,23.90
2023-08-11T17:22:28.405Z,23.90
2023-08-11T17:24:55.596Z,23.90
2023-08-11T17:27:22.654Z,23.90
2023-08-11T17:29:51.195Z,23.80
2023-08-11T17:32:18.370Z,23.80
2023-08-11T17:34:57.059Z,23.70
2023-08-11T17:37:25.443Z,23.60
2023-08-11T17:39:52.912Z,23.40
2023-08-11T17:42:20.182Z,23.30
2023-08-11T17:44:47.315Z,23.20
2023-08-11T17:47:14.519Z,23.10
2023-08-11T17:49:41.623Z,22.90
2023-08-11T17:52:09.013Z,22.90
2023-08-11T17:54:37.849Z,22.80
2023-08-11T17:57:05.155Z,22.80
2023-08-11T17:59:32.229Z,22.80
2023-08-11T18:01:59.458Z,22.90
2023-08-11T18:04:26.628Z,22.80
2023-08-11T18:06:54.306Z,22.80
2023-08-11T18:09:21.373Z,22.90
2023-08-11T18:11:48.517Z,22.90
2023-08-11T18:14:15.637Z,22.80
2023-08-11T18:16:42.954Z,22.80
2023-08-11T18:19:10.328Z,22.90
2023-08-11T18:21:37.443Z,22.90
2023-08-11T18:24:04.810Z,22.90
2023-08-11T18:26:35.844Z,22.90
2023-08-11T18:29:03.451Z,22.90
2023-08-11T18:31:30.662Z,22.80
2023-08-11T18:33:58.858Z,22.70
2023-08-11T18:36:25.962Z,22.70
2023-08-11T18:38:53.203Z,22.60
2023-08-11T18:41:20.834Z,22.50
2023-08-11T18:43:47.913Z,22.50
2023-08-11T18:46:15.125Z,22.40
2023-08-11T18:48:42.227Z,22.30
2023-08-11T18:51:10.200Z,22.30
2023-08-11T18:53:37.498Z,22.20
2023-08-11T18:56:04.749Z,22.20
2023-08-11T18:58:31.908Z,22.20
2023-08-11T19:00:59.192Z,22.20
2023-08-11T19:03:26.450Z,22.10
2023-08-11T19:05:53.834Z,22.00
2023-08-11T19:08:20.907Z,21.90
2023-08-11T19:10:48.004Z,21.90
2023-08-11T19:13:15.084Z,21.90
2023-08-11T19:15:42.351Z,21.80
2023-08-11T19:18:09.561Z,21.80
2023-08-11T19:20:36.709Z,21.70
2023-08-11T19:23:04.004Z,21.60
2023-08-11T19:25:31.141Z,21.60
2023-08-11T19:27:58.214Z,21.50
2023-08-11T19:30:26.846Z,21.40
2023-08-11T19:32:54.993Z,21.40
2023-08-11T19:35:23.589Z,21.30
2023-08-11T19:37:50.651Z,21.20
2023-08-11T19:40:17.881Z,21.20
2023-08-11T19:42:45.003Z,21.10
2023-08-11T19:45:12.299Z,21.00
2023-08-11T19:47:39.436Z,20.90
2023-08-11T19:50:07.045Z,20.80
2023-08-11T19:52:35.812Z,20.70
2023-08-11T19:55:03.099Z,20.70
2023-08-11T19:57:30.278Z,20.60
2023-08-11T19:59:57.672Z,20.60
2023-08-11T20:02:24.843Z,20.60
2023-08-11T20:04:52.015Z,20.60
2023-08-11T20:07:19.312Z,20.50
2023-08-11T20:09:46.421Z,20.50
2023-08-11T20:12:13.559Z,20.50
2023-08-11T20:14:40.607Z,20.30
2023-08-11T20:17:07.924Z,20.20
2023-08-11T20:19:35.452Z,20.10
2023-08-11T20:22:02.724Z,20.00
2023-08-11T20:24:29.971Z,19.90
2023-08-11T20:26:57.622Z,19.90
2023-08-11T20:29:25.877Z,19.80
2023-08-11T20:31:55.469Z,19.80
2023-08-11T20:34:23.225Z,19.70
2023-08-11T20:36:51.510Z,19.60
2023-08-11T20:39:22.822Z,19.50
2023-08-11T20:41:51.173Z,19.40
2023-08-11T20:44:18.377Z,19.30
2023-08-11T20:46:45.490Z,19.40
2023-08-11T20:49:12.575Z,19.30
2023-08-11T20:51:39.877Z,19.40
2023-08-11T20:54:07.025Z,19.40
2023-08-11T20:56:34.993Z,19.40
2023-08-11T20:59:02.072Z,19.40
2023-08-11T21:01:29.201Z,19.40
2023-08-11T21:03:56.425Z,19.40
2023-08-11T21:06:23.666Z,19.40
2023-08-11T21:08:53.802Z,19.40
2023-08-11T21:11:20.935Z,19.50
2023-08-11T21:13:48.110Z,19.50
2023-08-11T21:16:15.663Z,19.50
2023-08-11T21:18:42.855Z,19.50
2023-08-11T21:21:09.966Z,19.50
2023-08-11T21:23:37.131Z,19.50
2023-08-11T21:26:04.239Z,19.40
2023-08-11T21:28:31.375Z,19.40
2023-08-11T21:31:15.684Z,19.40
2023-08-11T21:33:44.467Z,19.40
2023-08-11T21:36:11.614Z,19.40
2023-08-11T21:38:38.746Z,19.40
2023-08-11T21:41:06.104Z,19.30
2023-08-11T21:43:33.338Z,19.30
2023-08-11T21:46:00.445Z,19.30
2023-08-11T21:48:27.604Z,19.30
2023-08-11T21:50:56.853Z,19.20
2023-08-11T21:53:24.287Z,19.20
2023-08-11T21:55:52.203Z,19.10
2023-08-11T21:58:19.380Z,19.10
2023-08-11T22:00:46.620Z,19.10
2023-08-11T22:03:13.851Z,19.00
2023-08-11T22:05:41.145Z,19.00
2023-08-11T22:08:08.290Z,19.00
2023-08-11T22:10:35.783Z,19.00
2023-08-11T22:13:03.021Z,19.00
2023-08-11T22:15:30.183Z,19.00
2023-08-11T22:17:57.325Z,19.00
2023-08-11T22:20:24.802Z,19.00
2023-08-11T22:22:51.876Z,19.00
2023-08-11T22:25:20.495Z,19.00
2023-08-11T22:27:49.463Z,18.90
2023-08-11T22:30:17.164Z,18.80
2023-08-11T22:32:44.413Z,18.80
2023-08-11T22:35:12.079Z,18.80
2023-08-11T22:37:39.184Z,18.80
2023-08-11T22:40:07.439Z,18.90
2023-08-11T22:42:34.616Z,18.90
2023-08-11T22:45:01.630Z,18.80
2023-08-11T22:47:28.833Z,18.80
2023-08-11T22:49:56.813Z,18.80
2023-08-11T22:52:24.064Z,18.80
2023-08-11T22:54:51.304Z,18.80
2023-08-11T22:57:19.269Z,18.80
2023-08-11T22:59:46.379Z,18.80
2023-08-11T23:02:13.456Z,18.80
2023-08-11T23:04:41.652Z,18.80
2023-08-11T23:07:09.462Z,18.70
2023-08-11T23:09:36.926Z,18.70
2023-08-11T23:12:05.678Z,18.60
2023-08-11T23:14:32.908Z,18.60
2023-08-11T23:16:59.940Z,18.60
2023-08-11T23:19:27.076Z,18.60
2023-08-11T23:21:54.129Z,18.60
2023-08-11T23:24:21.405Z,18.50
2023-08-11T23:26:48.482Z,18.50
2023-08-11T23:29:15.591Z,18.40
2023-08-11T23:31:43.620Z,18.40
2023-08-11T23:34:11.094Z,18.40
2023-08-11T23:36:38.173Z,18.40
2023-08-11T23:39:07.269Z,18.40
2023-08-11T23:41:34.356Z,18.30
2023-08-11T23:44:01.951Z,18.30
2023-08-11T23:46:29.017Z,18.20
2023-08-11T23:48:56.327Z,18.20
2023-08-11T23:51:24.167Z,18.20
2023-08-11T23:53:51.370Z,18.10
2023-08-11T23:56:18.545Z,18.10
2023-08-11T23:58:45.668Z,18.00
